Time;durP1;ratioP1;P1;durP2;ratioP2;P2;SDS_P1;SDS_P2;PMS_P1;PMS_P2;Temp;Humidity;BMP_temperature;BMP_pressure;BME280_temperature;BME280_humidity;BME280_pressure;Samples;Min_cycle;Max_cycle;Signal;HPM_P1;HPM_P2
2021/03/25 00:01:54;;;;;;;10.00;8.30;;;8.70;99.90;;;;;;4963203;28;20210;-75
2021/03/25 00:04:20;;;;;;;11.87;8.40;;;8.70;99.90;;;;;;4959563;28;20427;-73
2021/03/25 00:06:52;;;;;;;12.50;9.07;;;8.60;99.90;;;;;;4961075;28;20501;-78
2021/03/25 00:09:20;;;;;;;15.13;8.87;;;8.60;99.90;;;;;;4966750;28;20505;-74
2021/03/25 00:11:46;;;;;;;9.53;8.33;;;8.60;99.90;;;;;;4965135;28;20454;-73
2021/03/25 00:14:12;;;;;;;9.13;8.17;;;8.60;99.90;;;;;;4965376;28;20439;-74
2021/03/25 00:16:38;;;;;;;11.60;7.73;;;8.50;99.90;;;;;;4969104;28;20468;-74
2021/03/25 00:19:07;;;;;;;9.47;8.07;;;8.50;99.90;;;;;;4967420;28;20199;-75
2021/03/25 00:21:33;;;;;;;14.10;8.63;;;8.50;99.90;;;;;;4963756;28;20302;-73
2021/03/25 00:23:59;;;;;;;9.53;8.33;;;8.50;99.90;;;;;;4965670;28;20532;-74
2021/03/25 00:26:24;;;;;;;12.87;8.57;;;8.40;99.90;;;;;;4961461;28;20843;-75
2021/03/25 00:28:50;;;;;;;12.17;8.80;;;8.40;99.90;;;;;;4966872;28;20481;-74
2021/03/25 00:31:16;;;;;;;13.80;9.03;;;8.40;99.90;;;;;;4965530;28;20218;-76
2021/03/25 00:33:41;;;;;;;12.33;8.97;;;8.40;99.90;;;;;;4962064;28;20218;-76
2021/03/25 00:36:07;;;;;;;9.90;8.80;;;8.30;99.90;;;;;;4964330;28;20202;-73
2021/03/25 00:38:34;;;;;;;10.37;9.27;;;8.30;99.90;;;;;;4965441;28;20208;-75
2021/03/25 00:41:00;;;;;;;10.17;8.27;;;8.20;99.90;;;;;;4964537;28;20186;-74
2021/03/25 00:43:26;;;;;;;13.50;9.60;;;8.20;99.90;;;;;;4963714;28;20451;-74
2021/03/25 00:45:52;;;;;;;9.67;8.07;;;8.20;99.90;;;;;;4971003;28;20542;-75
2021/03/25 00:48:20;;;;;;;12.00;8.43;;;8.20;99.90;;;;;;4965829;28;20301;-73
2021/03/25 00:50:49;;;;;;;9.67;8.50;;;8.20;99.90;;;;;;4965088;28;20203;-75
2021/03/25 00:53:20;;;;;;;9.67;8.17;;;8.10;99.90;;;;;;4965237;28;20453;-74
2021/03/25 00:55:46;;;;;;;11.33;7.93;;;8.10;99.90;;;;;;4962656;28;20984;-75
2021/03/25 00:58:11;;;;;;;10.97;8.53;;;8.00;99.90;;;;;;4964145;28;20513;-77
2021/03/25 01:00:40;;;;;;;9.53;7.10;;;8.00;99.90;;;;;;4962953;28;20233;-74
2021/03/25 01:03:07;;;;;;;10.23;7.40;;;8.00;99.90;;;;;;4963858;28;20469;-72
2021/03/25 01:05:33;;;;;;;8.87;7.77;;;8.00;99.90;;;;;;4962792;28;20541;-74
2021/03/25 01:07:59;;;;;;;10.40;7.87;;;7.90;99.90;;;;;;4964667;28;20481;-75
2021/03/25 01:10:30;;;;;;;10.83;7.47;;;7.80;99.90;;;;;;4964340;28;20428;-75
2021/03/25 01:12:57;;;;;;;11.37;7.70;;;7.80;99.90;;;;;;4961619;28;20221;-73
2021/03/25 01:15:23;;;;;;;11.50;7.70;;;7.70;99.90;;;;;;4966003;28;20449;-74
2021/03/25 01:17:52;;;;;;;10.37;8.00;;;7.60;99.90;;;;;;4963650;28;20441;-77
2021/03/25 01:20:26;;;;;;;8.93;7.23;;;7.50;99.90;;;;;;4965672;28;21700;-74
2021/03/25 01:22:52;;;;;;;12.90;7.93;;;7.30;99.90;;;;;;4962620;28;20465;-76
2021/03/25 01:25:19;;;;;;;10.90;8.00;;;7.30;99.90;;;;;;4962707;28;20441;-74
2021/03/25 01:27:46;;;;;;;8.27;7.00;;;7.40;99.90;;;;;;4964489;28;20740;-75
2021/03/25 01:30:13;;;;;;;11.43;7.73;;;7.40;99.90;;;;;;4963360;28;20458;-73
2021/03/25 01:32:38;;;;;;;8.73;7.73;;;7.40;99.90;;;;;;4962477;28;20464;-75
2021/03/25 01:35:08;;;;;;;9.60;8.57;;;7.40;99.90;;;;;;4965142;28;20449;-73
2021/03/25 01:37:33;;;;;;;14.30;8.37;;;7.40;99.90;;;;;;4960327;28;20232;-78
2021/03/25 01:39:59;;;;;;;10.70;7.80;;;7.30;99.90;;;;;;4965918;28;20438;-73
2021/03/25 01:42:28;;;;;;;9.50;7.13;;;7.20;99.90;;;;;;4964524;28;20210;-78
2021/03/25 01:44:54;;;;;;;8.33;7.40;;;7.20;99.90;;;;;;4960905;28;20222;-76
2021/03/25 01:47:20;;;;;;;9.73;8.03;;;7.30;99.90;;;;;;4961840;28;20579;-73
2021/03/25 01:49:45;;;;;;;8.70;6.70;;;7.30;99.90;;;;;;4969433;28;20217;-74
2021/03/25 01:52:41;;;;;;;8.70;6.27;;;7.30;99.90;;;;;;4963440;28;20461;-75
2021/03/25 01:55:22;;;;;;;7.53;6.13;;;7.20;99.90;;;;;;4955424;28;20304;-75
2021/03/25 01:58:07;;;;;;;7.33;6.60;;;7.20;99.90;;;;;;4971193;28;20439;-73
2021/03/25 02:00:41;;;;;;;9.90;6.77;;;7.20;99.90;;;;;;4964614;28;20441;-73
2021/03/25 02:03:40;;;;;;;9.83;6.23;;;7.20;99.90;;;;;;4962595;28;20535;-72
2021/03/25 02:06:24;;;;;;;8.80;7.30;;;7.20;99.90;;;;;;4964906;28;20937;-72
2021/03/25 02:08:55;;;;;;;6.47;5.67;;;7.20;99.90;;;;;;4964873;28;20473;-75
2021/03/25 02:12:10;;;;;;;7.07;6.07;;;7.20;99.90;;;;;;4963963;28;20473;-78
2021/03/25 02:15:03;;;;;;;8.80;7.20;;;7.20;99.90;;;;;;4919215;28;20470;-75
2021/03/25 02:17:47;;;;;;;9.40;7.10;;;7.10;99.90;;;;;;4960603;28;20824;-75
2021/03/25 02:20:30;;;;;;;18.80;8.30;;;7.10;99.90;;;;;;4968380;28;21163;-73
2021/03/25 02:23:14;;;;;;;9.10;6.67;;;7.10;99.90;;;;;;4966696;28;20548;-76
2021/03/25 02:26:11;;;;;;;10.23;6.50;;;7.10;99.90;;;;;;4962597;28;20998;-76
2021/03/25 02:29:10;;;;;;;8.57;6.70;;;7.00;99.90;;;;;;4961873;28;21007;-77
2021/03/25 02:31:40;;;;;;;8.47;5.77;;;7.00;99.90;;;;;;4964589;28;20504;-73
2021/03/25 02:34:10;;;;;;;7.27;5.77;;;6.90;99.90;;;;;;4964376;28;20808;-78
2021/03/25 02:37:00;;;;;;;7.27;5.70;;;6.90;99.90;;;;;;4963627;28;20452;-74
2021/03/25 02:39:58;;;;;;;7.10;5.97;;;6.90;99.90;;;;;;4964269;28;20433;-74
2021/03/25 02:42:29;;;;;;;9.47;6.93;;;6.90;99.90;;;;;;4966145;28;20459;-75
2021/03/25 02:45:04;;;;;;;7.20;6.50;;;6.90;99.90;;;;;;4968247;28;20414;-74
2021/03/25 02:47:33;;;;;;;7.90;5.67;;;7.00;99.90;;;;;;4967587;28;20471;-75
2021/03/25 02:50:07;;;;;;;13.40;7.03;;;7.00;99.90;;;;;;4966752;28;20437;-75
2021/03/25 02:52:45;;;;;;;8.20;6.60;;;6.90;99.90;;;;;;4967781;28;20453;-74
2021/03/25 02:55:14;;;;;;;8.20;6.70;;;6.90;99.90;;;;;;4959623;28;20434;-73
2021/03/25 02:58:07;;;;;;;8.23;6.47;;;6.90;99.90;;;;;;4965701;28;21207;-74
2021/03/25 03:00:48;;;;;;;8.80;7.37;;;6.90;99.90;;;;;;4967664;28;20446;-72
2021/03/25 03:03:20;;;;;;;7.33;6.63;;;6.90;99.90;;;;;;4966573;28;20462;-73
2021/03/25 03:05:49;;;;;;;8.77;7.00;;;6.90;99.90;;;;;;4966637;28;20457;-74
2021/03/25 03:08:21;;;;;;;10.23;6.70;;;6.80;99.90;;;;;;4967427;28;20849;-75
2021/03/25 03:11:31;;;;;;;7.87;6.80;;;6.70;99.90;;;;;;4972279;28;20421;-73
2021/03/25 03:14:05;;;;;;;12.53;7.17;;;6.70;99.90;;;;;;4944199;28;20434;-75
2021/03/25 03:16:51;;;;;;;10.10;7.17;;;6.60;99.90;;;;;;4946072;28;20971;-74
2021/03/25 03:19:34;;;;;;;7.60;5.70;;;6.60;99.90;;;;;;4958191;28;20466;-74
2021/03/25 03:22:06;;;;;;;7.27;6.57;;;6.50;99.90;;;;;;4961388;28;20453;-74
2021/03/25 03:24:32;;;;;;;6.13;5.53;;;6.50;99.90;;;;;;4967143;28;20446;-76
2021/03/25 03:27:25;;;;;;;10.77;7.00;;;6.50;99.90;;;;;;4959568;28;21016;-74
2021/03/25 03:29:53;;;;;;;11.27;7.00;;;6.50;99.90;;;;;;4959576;28;20450;-74
2021/03/25 03:32:40;;;;;;;8.40;5.97;;;6.50;99.90;;;;;;4965185;28;20861;-73
2021/03/25 03:35:23;;;;;;;9.77;6.70;;;6.50;99.90;;;;;;4964828;28;20862;-72
2021/03/25 03:37:54;;;;;;;8.20;6.57;;;6.50;99.90;;;;;;4966778;28;20436;-74
2021/03/25 03:40:28;;;;;;;7.27;6.40;;;6.40;99.90;;;;;;4965947;28;21029;-75
2021/03/25 03:43:00;;;;;;;8.60;5.90;;;6.40;99.90;;;;;;4965318;28;20496;-75
2021/03/25 03:45:28;;;;;;;7.23;5.77;;;6.30;99.90;;;;;;4961938;28;20575;-73
2021/03/25 03:47:59;;;;;;;9.30;7.30;;;6.30;99.90;;;;;;4947324;28;20465;-73
2021/03/25 03:50:31;;;;;;;12.60;6.37;;;6.30;99.90;;;;;;4962383;28;20451;-76
2021/03/25 03:52:57;;;;;;;8.10;6.90;;;6.20;99.90;;;;;;4967625;28;20529;-77
2021/03/25 03:55:24;;;;;;;8.20;6.50;;;6.20;99.90;;;;;;4965812;28;20480;-76
2021/03/25 03:58:17;;;;;;;7.87;6.00;;;6.20;99.90;;;;;;4959649;28;20496;-73
2021/03/25 04:00:45;;;;;;;12.03;6.00;;;6.10;99.90;;;;;;4965536;28;21043;-76
2021/03/25 04:03:32;;;;;;;8.70;6.07;;;6.00;99.90;;;;;;4964665;28;20565;-73
2021/03/25 04:06:03;;;;;;;12.77;6.23;;;5.90;99.90;;;;;;4966098;28;20422;-74
2021/03/25 04:08:36;;;;;;;8.83;6.10;;;5.90;99.90;;;;;;4961794;28;20502;-75
2021/03/25 04:11:18;;;;;;;6.87;5.67;;;5.90;99.90;;;;;;4957801;28;20442;-74
2021/03/25 04:13:51;;;;;;;6.80;5.90;;;5.90;99.90;;;;;;4982717;28;20611;-74
2021/03/25 04:16:22;;;;;;;9.83;6.40;;;6.00;99.90;;;;;;4961924;28;20434;-76
2021/03/25 04:19:11;;;;;;;8.20;6.40;;;6.00;99.90;;;;;;4961332;28;20525;-74
2021/03/25 04:21:54;;;;;;;7.27;5.73;;;6.00;99.90;;;;;;4963056;28;20533;-73
2021/03/25 04:24:24;;;;;;;8.30;6.30;;;6.00;99.90;;;;;;4966676;28;21076;-73
2021/03/25 04:26:57;;;;;;;10.47;6.80;;;5.90;99.90;;;;;;4960112;28;20453;-73
2021/03/25 04:29:37;;;;;;;7.00;5.87;;;5.90;99.90;;;;;;4965477;28;20422;-75
2021/03/25 04:32:04;;;;;;;10.13;6.53;;;5.80;99.90;;;;;;4962126;28;20814;-74
2021/03/25 04:34:30;;;;;;;7.93;6.60;;;5.80;99.90;;;;;;4963196;28;20453;-75
2021/03/25 04:36:56;;;;;;;7.27;6.30;;;5.70;99.90;;;;;;4965858;28;20917;-75
2021/03/25 04:39:23;;;;;;;6.37;5.70;;;5.70;99.90;;;;;;4963925;28;20525;-75
2021/03/25 04:41:50;;;;;;;8.90;6.37;;;5.60;99.90;;;;;;4966572;28;20453;-78
2021/03/25 04:44:43;;;;;;;9.97;6.33;;;5.60;99.90;;;;;;4965704;28;20484;-74
2021/03/25 04:47:22;;;;;;;7.67;6.73;;;5.60;99.90;;;;;;4962573;28;20570;-75
2021/03/25 04:50:04;;;;;;;8.30;5.10;;;5.70;99.90;;;;;;4964911;28;20428;-73
2021/03/25 04:52:33;;;;;;;7.90;6.03;;;5.60;99.90;;;;;;4964516;28;20540;-73
2021/03/25 04:55:16;;;;;;;7.53;6.50;;;5.70;99.90;;;;;;4966013;28;20430;-78
2021/03/25 04:57:51;;;;;;;7.67;5.80;;;5.70;99.90;;;;;;4963790;28;20433;-76
2021/03/25 05:00:22;;;;;;;6.90;6.03;;;5.70;99.90;;;;;;4962982;28;20448;-74
2021/03/25 05:02:48;;;;;;;10.77;6.40;;;5.60;99.90;;;;;;4962021;28;20461;-73
2021/03/25 05:05:21;;;;;;;6.67;6.00;;;5.70;99.90;;;;;;4964454;28;20434;-73
2021/03/25 05:07:53;;;;;;;7.00;6.30;;;5.70;99.90;;;;;;4965503;28;20217;-72
2021/03/25 05:10:25;;;;;;;8.60;6.37;;;5.70;99.90;;;;;;4969355;28;20489;-75
2021/03/25 05:12:52;;;;;;;7.90;5.50;;;5.70;99.90;;;;;;4969647;28;20445;-76
2021/03/25 05:15:19;;;;;;;9.47;6.03;;;5.70;99.90;;;;;;4967444;28;20497;-75
2021/03/25 05:18:03;;;;;;;6.80;5.40;;;5.60;99.90;;;;;;4968753;28;20529;-74
2021/03/25 05:20:47;;;;;;;11.00;6.57;;;5.60;99.90;;;;;;4966628;28;20480;-74
2021/03/25 05:23:25;;;;;;;7.27;6.07;;;5.70;99.90;;;;;;4966910;28;20467;-74
2021/03/25 05:26:13;;;;;;;9.10;5.80;;;5.60;99.90;;;;;;4960977;28;20433;-73
2021/03/25 05:28:53;;;;;;;8.20;6.13;;;5.60;99.90;;;;;;4962619;28;20484;-73
2021/03/25 05:31:20;;;;;;;10.80;6.00;;;5.70;99.90;;;;;;4966284;28;20453;-73
2021/03/25 05:33:51;;;;;;;10.10;6.10;;;5.70;99.90;;;;;;4963816;28;21241;-75
2021/03/25 05:36:18;;;;;;;8.20;6.10;;;5.70;99.90;;;;;;4959425;28;20434;-74
2021/03/25 05:38:43;;;;;;;8.60;6.80;;;5.60;99.90;;;;;;4963099;28;20435;-76
2021/03/25 05:41:26;;;;;;;10.77;7.00;;;5.50;99.90;;;;;;4962036;28;20557;-73
2021/03/25 05:44:30;;;;;;;10.53;7.00;;;5.50;99.90;;;;;;4964210;28;20255;-74
2021/03/25 05:47:25;;;;;;;9.70;6.40;;;5.50;99.90;;;;;;4963011;28;20472;-74
2021/03/25 05:50:13;;;;;;;21.83;7.17;;;5.60;99.90;;;;;;4961641;28;20480;-73
2021/03/25 05:52:54;;;;;;;11.40;7.50;;;5.60;99.90;;;;;;4961310;28;20463;-75
2021/03/25 05:55:36;;;;;;;9.57;6.07;;;5.60;99.90;;;;;;4960572;28;20776;-73
2021/03/25 05:58:20;;;;;;;8.93;6.63;;;5.60;99.90;;;;;;4959034;28;20442;-73
2021/03/25 06:01:33;;;;;;;8.10;6.30;;;5.70;99.90;;;;;;4962028;28;20449;-75
2021/03/25 06:04:05;;;;;;;10.90;7.13;;;5.70;99.90;;;;;;4963114;28;20890;-75
2021/03/25 06:07:12;;;;;;;8.03;6.70;;;5.70;99.90;;;;;;4963858;28;20522;-73
2021/03/25 06:09:59;;;;;;;9.50;6.50;;;5.70;99.90;;;;;;4962427;28;20449;-75
2021/03/25 06:12:43;;;;;;;9.33;6.73;;;5.80;99.90;;;;;;4959130;28;20521;-77
2021/03/25 06:15:50;;;;;;;12.20;6.63;;;5.80;99.90;;;;;;4964599;28;20429;-75
2021/03/25 06:18:39;;;;;;;9.63;7.17;;;5.80;99.90;;;;;;4960215;28;20464;-77
2021/03/25 06:21:38;;;;;;;18.20;7.03;;;6.00;99.90;;;;;;4958975;28;20442;-74
2021/03/25 06:24:16;;;;;;;9.97;7.20;;;6.00;99.90;;;;;;4959325;28;20454;-73
2021/03/25 06:26:51;;;;;;;9.87;6.40;;;6.10;99.90;;;;;;4959006;28;20438;-76
2021/03/25 06:29:24;;;;;;;7.60;6.17;;;6.10;99.90;;;;;;4960483;28;20972;-74
2021/03/25 06:32:30;;;;;;;11.17;7.03;;;6.20;99.90;;;;;;4961222;28;20481;-76
2021/03/25 06:35:02;;;;;;;8.50;6.60;;;6.30;99.90;;;;;;4936327;28;20484;-75
2021/03/25 06:37:52;;;;;;;12.47;6.73;;;6.50;99.90;;;;;;4932319;28;20454;-72
2021/03/25 06:40:24;;;;;;;9.67;7.10;;;6.60;99.90;;;;;;4950564;28;20509;-76
2021/03/25 06:43:15;;;;;;;11.40;6.43;;;6.70;99.90;;;;;;4959120;28;20470;-72
2021/03/25 06:45:49;;;;;;;8.97;6.47;;;6.80;99.90;;;;;;4956394;28;20442;-76
2021/03/25 06:48:19;;;;;;;7.83;5.13;;;6.90;99.90;;;;;;4960809;28;21177;-76
2021/03/25 06:50:51;;;;;;;7.80;5.97;;;7.10;99.90;;;;;;4960085;28;21099;-74
2021/03/25 06:53:33;;;;;;;8.70;6.50;;;7.10;99.90;;;;;;4959932;28;20465;-74
2021/03/25 06:56:05;;;;;;;10.10;5.30;;;7.00;99.90;;;;;;4960779;28;20815;-75
2021/03/25 06:58:49;;;;;;;11.63;6.43;;;7.00;99.90;;;;;;4958876;28;20458;-73
2021/03/25 07:01:28;;;;;;;7.50;5.60;;;6.80;99.90;;;;;;4960820;28;20483;-75
2021/03/25 07:03:57;;;;;;;9.40;6.00;;;6.90;99.90;;;;;;4959777;28;20802;-74
2021/03/25 07:06:26;;;;;;;7.13;6.40;;;7.00;99.90;;;;;;4962623;28;20820;-74
2021/03/25 07:08:56;;;;;;;6.17;5.40;;;7.00;99.90;;;;;;4959722;28;20467;-74
2021/03/25 07:11:25;;;;;;;5.93;5.33;;;7.00;99.90;;;;;;4965506;28;20461;-76
2021/03/25 07:13:59;;;;;;;8.27;6.43;;;7.20;99.90;;;;;;4960313;28;20452;-75
2021/03/25 07:16:28;;;;;;;9.10;5.90;;;7.20;99.90;;;;;;4959389;28;20498;-75
2021/03/25 07:19:21;;;;;;;8.20;5.70;;;7.30;99.90;;;;;;4962268;28;20955;-74
2021/03/25 07:21:49;;;;;;;7.53;5.70;;;7.40;99.90;;;;;;4961019;28;20485;-75
2021/03/25 07:24:34;;;;;;;6.67;6.03;;;7.40;99.90;;;;;;4959498;28;20447;-78
2021/03/25 07:27:19;;;;;;;8.40;6.30;;;7.30;99.90;;;;;;4959379;28;20436;-79
2021/03/25 07:30:02;;;;;;;8.40;5.63;;;7.50;99.90;;;;;;4963325;28;20952;-76
2021/03/25 07:32:47;;;;;;;6.40;5.07;;;7.40;99.90;;;;;;4961591;28;20457;-77
2021/03/25 07:35:26;;;;;;;11.13;6.70;;;7.50;99.90;;;;;;4960163;28;20525;-75
2021/03/25 07:37:52;;;;;;;10.60;6.30;;;7.60;99.90;;;;;;4958931;28;20450;-77
2021/03/25 07:40:29;;;;;;;6.50;5.90;;;7.60;99.90;;;;;;4963867;28;20456;-74
2021/03/25 07:42:56;;;;;;;8.80;6.10;;;7.70;99.90;;;;;;4961679;28;20540;-77
2021/03/25 07:45:32;;;;;;;10.03;6.10;;;7.80;99.90;;;;;;4971629;28;20772;-74
2021/03/25 07:48:25;;;;;;;11.23;5.60;;;7.90;99.90;;;;;;4968461;28;20473;-75
2021/03/25 07:51:09;;;;;;;7.30;6.10;;;7.80;99.90;;;;;;4974147;28;20441;-75
2021/03/25 07:53:36;;;;;;;7.40;5.97;;;8.00;99.90;;;;;;4973601;28;20442;-74
2021/03/25 07:56:20;;;;;;;8.37;5.60;;;8.00;99.90;;;;;;4963957;28;20448;-77
2021/03/25 07:58:48;;;;;;;6.83;5.27;;;8.20;99.90;;;;;;4967000;28;20461;-76
2021/03/25 08:01:20;;;;;;;7.80;5.87;;;8.30;99.90;;;;;;4963837;28;20453;-77
2021/03/25 08:03:58;;;;;;;5.77;5.17;;;8.50;99.90;;;;;;4963676;28;20934;-75
2021/03/25 08:06:35;;;;;;;5.87;5.20;;;8.50;99.90;;;;;;4967170;28;20441;-75
2021/03/25 08:09:17;;;;;;;5.77;5.23;;;8.70;99.90;;;;;;4945462;28;20913;-78
2021/03/25 08:11:53;;;;;;;7.17;5.37;;;9.10;99.90;;;;;;4965186;28;20519;-73
2021/03/25 08:14:28;;;;;;;8.37;4.80;;;9.40;99.90;;;;;;4965712;28;20433;-76
2021/03/25 08:17:12;;;;;;;6.53;4.93;;;9.50;99.90;;;;;;4961753;28;20432;-75
2021/03/25 08:20:17;;;;;;;9.00;5.00;;;9.60;99.90;;;;;;4966490;28;20834;-75
2021/03/25 08:23:08;;;;;;;12.83;9.07;;;9.50;99.90;;;;;;4964322;28;20465;-77
2021/03/25 08:25:45;;;;;;;6.73;4.90;;;9.80;99.90;;;;;;4956780;28;20446;-75
2021/03/25 08:28:22;;;;;;;8.00;6.17;;;10.00;99.90;;;;;;4963761;28;20477;-75
2021/03/25 08:30:48;;;;;;;7.60;5.97;;;10.00;99.90;;;;;;4965822;28;20472;-76
2021/03/25 08:33:17;;;;;;;6.30;5.70;;;9.90;99.90;;;;;;4963702;28;20489;-77
2021/03/25 08:35:49;;;;;;;7.00;5.93;;;10.10;99.90;;;;;;4965008;28;20191;-75
2021/03/25 08:38:41;;;;;;;6.63;5.43;;;10.10;99.90;;;;;;4962058;28;20515;-76
2021/03/25 08:41:29;;;;;;;5.90;5.20;;;10.30;99.90;;;;;;4960444;28;20465;-75
2021/03/25 08:44:09;;;;;;;7.83;5.53;;;10.70;99.90;;;;;;4969785;28;20469;-75
2021/03/25 08:46:51;;;;;;;5.77;5.27;;;10.80;99.90;;;;;;4962437;28;20458;-75
2021/03/25 08:49:45;;;;;;;7.33;6.53;;;10.90;99.90;;;;;;4962219;28;20485;-75
2021/03/25 08:52:15;;;;;;;6.47;5.83;;;11.20;99.90;;;;;;4955023;28;20496;-73
2021/03/25 08:54:49;;;;;;;6.20;5.60;;;11.50;99.90;;;;;;4960595;28;20460;-74
2021/03/25 08:57:20;;;;;;;7.00;6.30;;;11.60;99.90;;;;;;4967250;28;20426;-73
2021/03/25 09:00:01;;;;;;;6.43;5.73;;;11.60;99.90;;;;;;4964847;28;21086;-77
2021/03/25 09:02:40;;;;;;;6.10;5.40;;;11.60;99.90;;;;;;4964875;28;20476;-76
2021/03/25 09:05:22;;;;;;;6.40;5.67;;;11.70;99.90;;;;;;4964613;28;20440;-80
2021/03/25 09:07:50;;;;;;;6.20;5.60;;;12.00;99.90;;;;;;4964444;28;20473;-76
2021/03/25 09:10:39;;;;;;;6.60;5.40;;;12.20;99.90;;;;;;4964854;28;20803;-74
2021/03/25 09:13:12;;;;;;;8.30;5.70;;;12.50;99.90;;;;;;4962431;28;20511;-74
2021/03/25 09:15:40;;;;;;;7.70;5.80;;;12.80;99.90;;;;;;4964515;28;20470;-74
2021/03/25 09:18:07;;;;;;;6.80;5.70;;;13.30;99.90;;;;;;4963488;28;20437;-76
2021/03/25 09:20:36;;;;;;;7.00;6.00;;;14.00;99.90;;;;;;4964913;28;20932;-76
2021/03/25 09:23:30;;;;;;;8.77;6.40;;;15.00;99.90;;;;;;4963152;28;20860;-76
2021/03/25 09:25:58;;;;;;;9.10;6.37;;;15.90;99.90;;;;;;4964310;28;20496;-74
2021/03/25 09:28:44;;;;;;;9.67;6.90;;;16.70;99.20;;;;;;4968606;28;20535;-75
2021/03/25 09:31:14;;;;;;;7.13;6.40;;;17.20;91.70;;;;;;4963623;28;20445;-76
2021/03/25 09:33:47;;;;;;;7.63;5.93;;;17.10;89.10;;;;;;4962197;28;20446;-75
2021/03/25 09:36:18;;;;;;;7.80;5.90;;;17.10;90.60;;;;;;4964469;28;20949;-74
2021/03/25 09:38:59;;;;;;;9.70;6.50;;;17.70;87.30;;;;;;4963948;28;20457;-76
2021/03/25 09:41:25;;;;;;;10.57;8.40;;;18.00;84.10;;;;;;4959364;28;20543;-66
2021/03/25 09:44:12;;;;;;;13.37;6.80;;;18.30;80.40;;;;;;4966335;28;20433;-64
2021/03/25 09:46:41;;;;;;;10.50;8.20;;;18.90;73.80;;;;;;4963710;28;20597;-66
2021/03/25 09:49:28;;;;;;;9.53;7.23;;;19.70;67.70;;;;;;4961199;28;20476;-72
2021/03/25 09:52:09;;;;;;;8.13;6.83;;;19.70;62.90;;;;;;4962047;28;20545;-74
2021/03/25 09:54:36;;;;;;;10.93;7.00;;;18.80;60.60;;;;;;4962777;28;20438;-76
2021/03/25 09:57:19;;;;;;;10.43;7.47;;;18.90;61.80;;;;;;4966841;28;20473;-79
2021/03/25 10:00:03;;;;;;;9.77;7.63;;;19.40;60.50;;;;;;4960086;28;20462;-76
2021/03/25 10:02:37;;;;;;;14.30;8.87;;;20.30;59.30;;;;;;4966966;28;20838;-76
2021/03/25 10:05:25;;;;;;;15.33;10.20;;;19.70;57.10;;;;;;4960197;28;20432;-74
2021/03/25 10:08:09;;;;;;;13.90;9.83;;;19.20;57.90;;;;;;4957969;28;21131;-76
2021/03/25 10:10:39;;;;;;;14.97;10.33;;;18.60;57.90;;;;;;4960198;28;20513;-82
2021/03/25 10:13:05;;;;;;;14.50;9.70;;;18.20;60.20;;;;;;4957582;28;20483;-76
2021/03/25 10:15:30;;;;;;;12.37;8.50;;;18.10;59.90;;;;;;4963625;28;20509;-78
2021/03/25 10:17:59;;;;;;;15.97;9.77;;;18.20;60.50;;;;;;4973647;28;20469;-78
2021/03/25 10:20:52;;;;;;;16.40;10.20;;;17.60;60.80;;;;;;4975018;28;20258;-76
2021/03/25 10:23:26;;;;;;;16.33;10.20;;;17.30;62.70;;;;;;4974532;28;20453;-77
2021/03/25 10:26:12;;;;;;;13.03;8.90;;;17.40;64.00;;;;;;4973221;28;20417;-74
2021/03/25 10:28:45;;;;;;;14.20;10.67;;;17.80;62.50;;;;;;4953498;28;20485;-74
2021/03/25 10:31:49;;;;;;;17.80;10.23;;;17.50;61.60;;;;;;4961616;28;20464;-77
2021/03/25 10:34:28;;;;;;;13.53;9.43;;;17.60;63.90;;;;;;4940823;28;20844;-74
2021/03/25 10:37:00;;;;;;;18.30;11.17;;;17.60;63.90;;;;;;4962037;28;21131;-75
2021/03/25 10:39:25;;;;;;;13.23;9.10;;;17.70;62.60;;;;;;4963584;28;20456;-76
2021/03/25 10:41:52;;;;;;;13.43;10.10;;;17.70;63.10;;;;;;4965505;28;20489;-76
2021/03/25 10:44:32;;;;;;;15.50;11.27;;;17.60;63.30;;;;;;4961946;28;20245;-74
2021/03/25 10:47:04;;;;;;;13.40;10.23;;;18.40;64.00;;;;;;4961594;28;20430;-74
2021/03/25 10:49:49;;;;;;;19.80;11.53;;;18.50;61.80;;;;;;4965800;28;20473;-75
2021/03/25 10:52:50;;;;;;;19.30;13.20;;;18.20;61.60;;;;;;4966390;28;20488;-75
2021/03/25 10:55:30;;;;;;;19.43;11.03;;;18.20;61.10;;;;;;4923605;29;21021;-76
2021/03/25 10:58:00;;;;;;;18.80;12.33;;;18.30;61.70;;;;;;4954227;28;20433;-74
2021/03/25 11:00:37;;;;;;;18.63;12.57;;;18.10;62.20;;;;;;4958596;28;20446;-75
2021/03/25 11:03:18;;;;;;;19.87;11.70;;;17.70;63.00;;;;;;4962399;28;20485;-78
2021/03/25 11:05:56;;;;;;;18.13;11.87;;;17.90;63.80;;;;;;4963914;28;20793;-79
2021/03/25 11:08:32;;;;;;;13.83;10.70;;;18.00;62.50;;;;;;4956533;28;20832;-78
2021/03/25 11:11:02;;;;;;;23.30;11.37;;;17.90;62.50;;;;;;4964279;28;20422;-74
2021/03/25 11:13:29;;;;;;;18.13;11.30;;;18.20;62.80;;;;;;4962073;28;20438;-76
2021/03/25 11:15:55;;;;;;;14.17;10.50;;;18.30;61.50;;;;;;4959140;28;20474;-75
2021/03/25 11:18:43;;;;;;;16.50;11.10;;;18.50;61.60;;;;;;4963790;28;20873;-76
2021/03/25 11:21:17;;;;;;;18.20;10.97;;;19.10;61.10;;;;;;4966535;28;20202;-75
2021/03/25 11:23:43;;;;;;;14.63;10.40;;;19.10;59.60;;;;;;4968779;28;20964;-75
2021/03/25 11:26:14;;;;;;;15.60;11.20;;;19.90;59.30;;;;;;4964726;28;20488;-74
2021/03/25 11:28:40;;;;;;;19.97;12.07;;;20.50;58.40;;;;;;4966765;28;20222;-74
2021/03/25 11:31:20;;;;;;;15.17;10.90;;;20.10;57.60;;;;;;4970079;28;20436;-74
2021/03/25 11:33:48;;;;;;;15.87;10.77;;;20.00;57.20;;;;;;4965568;28;20249;-75
2021/03/25 11:36:30;;;;;;;15.67;11.33;;;19.90;57.50;;;;;;4967283;28;20453;-76
2021/03/25 11:38:55;;;;;;;15.10;11.10;;;19.90;57.70;;;;;;4964104;28;20449;-77
2021/03/25 11:41:21;;;;;;;20.20;10.23;;;19.50;56.60;;;;;;4964663;28;20533;-78
2021/03/25 11:43:55;;;;;;;16.90;10.30;;;19.30;57.40;;;;;;4962880;28;20277;-73
2021/03/25 11:46:49;;;;;;;17.77;11.60;;;19.00;57.90;;;;;;4964146;28;20202;-76
2021/03/25 11:49:22;;;;;;;13.03;9.87;;;18.50;59.00;;;;;;4964173;28;20474;-76
2021/03/25 11:51:56;;;;;;;15.13;10.33;;;18.30;59.00;;;;;;4965118;28;20454;-74
2021/03/25 11:54:31;;;;;;;14.33;9.80;;;18.80;58.40;;;;;;4963602;28;20573;-78
2021/03/25 11:57:07;;;;;;;15.00;10.80;;;19.20;57.30;;;;;;4962285;28;20432;-77
2021/03/25 11:59:40;;;;;;;14.93;11.30;;;19.00;57.50;;;;;;4964423;28;20448;-79
2021/03/25 12:02:07;;;;;;;15.93;10.27;;;19.30;57.80;;;;;;4967651;28;20557;-75
2021/03/25 12:04:33;;;;;;;15.93;9.77;;;19.10;57.00;;;;;;4964701;28;20435;-75
2021/03/25 12:07:05;;;;;;;15.67;10.50;;;19.20;56.90;;;;;;4962893;28;20776;-78
2021/03/25 12:09:33;;;;;;;16.47;11.83;;;18.90;57.20;;;;;;4962110;28;20242;-78
2021/03/25 12:12:00;;;;;;;16.20;11.60;;;18.90;58.40;;;;;;4967068;28;20968;-74
2021/03/25 12:14:25;;;;;;;13.83;10.40;;;18.90;58.30;;;;;;4965281;28;20442;-73
2021/03/25 12:16:53;;;;;;;16.60;11.73;;;18.90;60.00;;;;;;4967473;28;20434;-65
2021/03/25 12:19:18;;;;;;;16.03;11.33;;;19.40;59.10;;;;;;4966691;28;20192;-66
2021/03/25 12:21:44;;;;;;;16.50;11.30;;;19.50;58.50;;;;;;4965793;28;20465;-69
2021/03/25 12:24:11;;;;;;;21.67;12.27;;;19.60;58.30;;;;;;4965285;28;20190;-68
2021/03/25 12:26:37;;;;;;;16.90;12.57;;;19.40;58.30;;;;;;4964832;28;20605;-66
2021/03/25 12:29:03;;;;;;;15.27;10.60;;;18.90;58.50;;;;;;4965726;28;20561;-68
2021/03/25 12:31:31;;;;;;;21.83;12.03;;;19.20;59.20;;;;;;4962711;28;20206;-68
2021/03/25 12:33:57;;;;;;;20.07;12.77;;;19.50;58.10;;;;;;4960996;28;20496;-67
2021/03/25 12:36:23;;;;;;;14.83;11.30;;;19.30;58.50;;;;;;4958823;28;20461;-66
2021/03/25 12:38:49;;;;;;;20.20;12.97;;;19.50;58.80;;;;;;4966011;28;20620;-74
2021/03/25 12:41:22;;;;;;;18.20;12.33;;;20.40;58.40;;;;;;4954802;28;20205;-76
2021/03/25 12:43:48;;;;;;;18.90;12.93;;;20.20;58.10;;;;;;4964443;28;20190;-77
2021/03/25 12:46:14;;;;;;;17.80;12.97;;;20.60;58.20;;;;;;4961099;28;20520;-73
2021/03/25 12:48:39;;;;;;;21.90;12.93;;;20.10;58.00;;;;;;4967212;28;20329;-75
2021/03/25 12:51:08;;;;;;;17.10;13.03;;;19.80;58.40;;;;;;4967475;28;20204;-76
2021/03/25 12:53:34;;;;;;;18.47;14.57;;;19.90;58.60;;;;;;4974661;28;20210;-80
2021/03/25 12:56:02;;;;;;;19.80;13.03;;;19.90;58.50;;;;;;4977433;28;21140;-75
2021/03/25 12:58:36;;;;;;;19.90;14.40;;;20.20;58.10;;;;;;4964031;28;20206;-76
2021/03/25 13:01:14;;;;;;;22.90;14.00;;;19.80;58.00;;;;;;4962704;28;20460;-77
2021/03/25 13:03:41;;;;;;;17.57;12.90;;;19.60;58.70;;;;;;4959681;28;20440;-76
2021/03/25 13:06:08;;;;;;;20.13;13.10;;;19.80;59.10;;;;;;4959008;28;20441;-75
2021/03/25 13:08:34;;;;;;;17.20;13.33;;;19.60;58.60;;;;;;4959662;28;20795;-78
2021/03/25 13:11:00;;;;;;;20.73;13.97;;;20.10;58.60;;;;;;4961225;28;20438;-78
2021/03/25 13:13:26;;;;;;;14.33;11.10;;;20.50;56.90;;;;;;4941657;28;20218;-76
2021/03/25 13:15:53;;;;;;;19.40;12.40;;;20.90;56.20;;;;;;4961234;28;20536;-76
2021/03/25 13:18:19;;;;;;;15.20;10.83;;;21.30;55.00;;;;;;4958112;28;20474;-76
2021/03/25 13:20:45;;;;;;;13.53;11.00;;;21.70;56.00;;;;;;4961905;28;20558;-77
2021/03/25 13:23:11;;;;;;;16.13;11.47;;;21.90;52.70;;;;;;4961466;28;20491;-77
2021/03/25 13:25:41;;;;;;;14.70;10.67;;;21.60;52.40;;;;;;4959218;28;20199;-79
2021/03/25 13:28:08;;;;;;;13.33;10.87;;;20.90;53.40;;;;;;4957496;28;20739;-76